Time;durP1;ratioP1;P1;durP2;ratioP2;P2;SDS_P1;SDS_P2;PMS_P1;PMS_P2;Temp;Humidity;BMP_temperature;BMP_pressure;BME280_temperature;BME280_humidity;BME280_pressure;Samples;Min_cycle;Max_cycle;Signal;HPM_P1;HPM_P2
2023/12/27 14:53:39;;;;;;;0.00;0.00;;;10.50;99.90;;;;;;5071006;28;21053;-84
2023/12/27 14:56:05;;;;;;;0.10;0.00;;;10.90;99.90;;;;;;5072046;28;20187;-86
2023/12/27 14:58:31;;;;;;;0.27;0.10;;;11.00;99.90;;;;;;5077475;28;20168;-85
2023/12/27 15:00:56;;;;;;;0.30;0.10;;;11.00;99.90;;;;;;5085084;28;20201;-88
2023/12/27 15:03:22;;;;;;;0.47;0.20;;;11.00;99.90;;;;;;5072772;28;20200;-90
2023/12/27 15:05:48;;;;;;;0.40;0.20;;;11.10;99.90;;;;;;5069155;28;20173;-92
2023/12/27 15:08:14;;;;;;;0.40;0.10;;;11.00;99.90;;;;;;5069977;28;20177;-86
2023/12/27 15:10:40;;;;;;;0.40;0.20;;;11.10;99.90;;;;;;5066176;28;20192;-87
2023/12/27 15:13:06;;;;;;;0.47;0.20;;;11.10;99.90;;;;;;5070036;28;20234;-91
2023/12/27 15:15:34;;;;;;;0.47;0.20;;;11.00;99.90;;;;;;5070220;28;20227;-85
2023/12/27 15:18:00;;;;;;;2.13;0.50;;;10.80;99.90;;;;;;5068597;28;20188;-83
2023/12/27 15:20:25;;;;;;;1.67;0.40;;;10.70;99.90;;;;;;5069139;28;20173;-88
2023/12/27 15:22:53;;;;;;;0.60;0.20;;;10.60;99.90;;;;;;5068331;28;20633;-83
2023/12/27 15:25:19;;;;;;;0.60;0.30;;;10.60;99.90;;;;;;5065843;28;20172;-84
2023/12/27 15:27:45;;;;;;;0.60;0.40;;;10.50;99.90;;;;;;5063491;28;20279;-82
2023/12/27 15:30:11;;;;;;;0.50;0.40;;;10.50;99.90;;;;;;5057140;28;20328;-87
2023/12/27 15:32:37;;;;;;;0.70;0.40;;;10.50;99.90;;;;;;5064559;28;20219;-92
2023/12/27 15:35:04;;;;;;;1.53;0.60;;;10.40;99.90;;;;;;5065002;28;20223;-78
2023/12/27 15:37:29;;;;;;;2.37;0.80;;;10.40;99.90;;;;;;5065880;28;20271;-79
2023/12/27 15:39:56;;;;;;;1.30;0.80;;;10.40;99.90;;;;;;5063100;28;20372;-86
2023/12/27 15:42:22;;;;;;;0.60;0.60;;;10.40;99.90;;;;;;5063393;28;20218;-82
2023/12/27 15:44:48;;;;;;;1.37;0.90;;;10.40;99.90;;;;;;5055175;28;20213;-80
2023/12/27 15:47:14;;;;;;;1.77;1.17;;;10.30;99.90;;;;;;5048148;28;20257;-78
2023/12/27 15:49:40;;;;;;;1.73;1.00;;;10.30;99.90;;;;;;5059125;28;20275;-78
2023/12/27 15:52:06;;;;;;;1.87;1.00;;;10.30;99.90;;;;;;5059492;28;20247;-80
2023/12/27 15:54:32;;;;;;;2.80;1.10;;;10.20;99.90;;;;;;5062708;28;20212;-83
2023/12/27 15:56:58;;;;;;;1.27;0.93;;;10.20;99.90;;;;;;5066823;28;20173;-83
2023/12/27 15:59:25;;;;;;;2.50;1.17;;;10.20;99.90;;;;;;5059629;28;20254;-79
2023/12/27 16:01:54;;;;;;;2.70;1.23;;;10.20;99.90;;;;;;5062814;28;20181;-77
2023/12/27 16:04:20;;;;;;;1.03;1.00;;;10.20;99.90;;;;;;5055340;28;20201;-79
2023/12/27 16:06:47;;;;;;;2.83;1.20;;;10.20;99.90;;;;;;5049508;28;20173;-79
2023/12/27 16:09:13;;;;;;;4.13;1.37;;;10.10;99.90;;;;;;5041362;28;20196;-81
2023/12/27 16:11:40;;;;;;;3.37;1.47;;;10.20;99.90;;;;;;5044940;28;20291;-78
2023/12/27 16:14:07;;;;;;;2.07;1.30;;;10.20;99.90;;;;;;5047580;28;20169;-78
2023/12/27 16:16:33;;;;;;;2.20;1.33;;;10.20;99.90;;;;;;5049833;28;20181;-77
2023/12/27 16:18:59;;;;;;;2.33;1.70;;;10.20;99.90;;;;;;5047696;28;20187;-82
2023/12/27 16:21:25;;;;;;;6.33;2.07;;;10.20;99.90;;;;;;5042976;28;20182;-79
2023/12/27 16:23:51;;;;;;;4.63;2.03;;;10.20;99.90;;;;;;5042781;28;20182;-78
2023/12/27 16:26:17;;;;;;;3.60;1.70;;;10.20;99.90;;;;;;5050378;28;20180;-80
2023/12/27 16:28:46;;;;;;;4.17;2.00;;;10.20;99.90;;;;;;5047219;28;20205;-75
2023/12/27 16:31:12;;;;;;;3.67;1.70;;;10.10;99.90;;;;;;5041208;28;20210;-78
2023/12/27 16:33:38;;;;;;;4.23;1.83;;;10.10;99.90;;;;;;5042896;28;20208;-85
2023/12/27 16:36:04;;;;;;;2.67;1.67;;;10.10;99.90;;;;;;5039431;28;20185;-80
2023/12/27 16:38:31;;;;;;;4.83;2.50;;;10.10;99.90;;;;;;5043150;28;20223;-81
2023/12/27 16:41:03;;;;;;;7.60;4.17;;;10.20;99.90;;;;;;5046357;28;20177;-80
2023/12/27 16:43:38;;;;;;;7.13;2.37;;;10.20;99.90;;;;;;5037968;28;20661;-80
2023/12/27 16:46:04;;;;;;;3.57;2.17;;;10.10;99.90;;;;;;5046272;28;20176;-80
2023/12/27 16:48:30;;;;;;;2.90;1.80;;;10.10;99.90;;;;;;5048465;28;20184;-81
2023/12/27 16:50:56;;;;;;;5.80;3.00;;;10.20;99.90;;;;;;5048428;28;20183;-86
2023/12/27 16:53:23;;;;;;;5.37;2.10;;;10.30;99.90;;;;;;5045328;28;20217;-80
2023/12/27 16:55:50;;;;;;;4.57;2.03;;;10.30;99.90;;;;;;5040061;28;20637;-79
2023/12/27 16:58:20;;;;;;;3.30;2.07;;;10.40;99.90;;;;;;5046984;28;20264;-85
2023/12/27 17:00:46;;;;;;;3.27;2.20;;;10.40;99.90;;;;;;5052424;28;20186;-82
2023/12/27 17:03:13;;;;;;;5.33;2.57;;;10.50;99.90;;;;;;5045062;28;20301;-82
2023/12/27 17:05:40;;;;;;;4.63;2.23;;;10.40;99.90;;;;;;5044476;28;20267;-82
2023/12/27 17:08:07;;;;;;;5.87;2.33;;;10.30;99.90;;;;;;5047639;28;20212;-81
2023/12/27 17:10:34;;;;;;;7.13;2.23;;;10.20;99.90;;;;;;5039676;28;20178;-82
2023/12/27 17:13:01;;;;;;;4.83;2.23;;;10.20;99.90;;;;;;5041502;28;20512;-86
2023/12/27 17:15:31;;;;;;;4.57;2.00;;;10.20;99.90;;;;;;5032327;28;20190;-81
2023/12/27 17:17:59;;;;;;;5.43;2.20;;;10.10;99.90;;;;;;5049593;28;20169;-81
2023/12/27 17:20:25;;;;;;;6.40;2.53;;;10.20;99.90;;;;;;5045407;28;20178;-79
2023/12/27 17:22:51;;;;;;;5.03;2.30;;;10.10;99.90;;;;;;5064548;28;20212;-80
2023/12/27 17:25:17;;;;;;;3.83;2.30;;;10.20;99.90;;;;;;5064476;28;20165;-80
2023/12/27 17:27:43;;;;;;;5.80;2.63;;;10.20;99.90;;;;;;5063682;28;20181;-85
2023/12/27 17:30:12;;;;;;;6.77;3.00;;;10.20;99.90;;;;;;5057143;28;20181;-79
2023/12/27 17:32:39;;;;;;;6.73;2.80;;;10.20;99.90;;;;;;5038972;28;20759;-77
2023/12/27 17:35:05;;;;;;;5.93;2.90;;;10.20;99.90;;;;;;5035916;28;20181;-79
2023/12/27 17:37:33;;;;;;;6.77;3.10;;;10.20;99.90;;;;;;5044366;28;20201;-78
2023/12/27 17:39:58;;;;;;;8.97;3.23;;;10.20;99.90;;;;;;5047091;28;20177;-82
2023/12/27 17:42:24;;;;;;;8.20;3.23;;;10.20;99.90;;;;;;5044843;28;20231;-83
2023/12/27 17:44:50;;;;;;;4.17;2.90;;;10.20;99.90;;;;;;5054379;28;20288;-77
2023/12/27 17:47:16;;;;;;;11.00;3.17;;;10.30;99.90;;;;;;5047491;28;20173;-84
2023/12/27 17:49:42;;;;;;;7.53;3.50;;;10.10;99.90;;;;;;5045302;28;20187;-84
2023/12/27 17:52:07;;;;;;;8.77;3.37;;;10.20;99.90;;;;;;5043548;28;20228;-79
2023/12/27 17:54:33;;;;;;;5.67;3.10;;;10.10;99.90;;;;;;5060466;28;20181;-80
2023/12/27 17:56:59;;;;;;;7.00;2.90;;;10.10;99.90;;;;;;5037881;28;20177;-81
2023/12/27 17:59:25;;;;;;;6.40;3.30;;;10.10;99.90;;;;;;5038019;28;20182;-83
2023/12/27 18:01:51;;;;;;;8.93;3.37;;;10.10;99.90;;;;;;5048419;28;20184;-76
2023/12/27 18:04:18;;;;;;;6.37;3.13;;;10.10;99.90;;;;;;5047222;28;20188;-82
2023/12/27 18:06:44;;;;;;;7.37;3.30;;;10.10;99.90;;;;;;5035724;28;20178;-83
2023/12/27 18:09:11;;;;;;;11.37;3.50;;;10.10;99.90;;;;;;5031941;28;20816;-85
2023/12/27 18:11:37;;;;;;;10.53;3.20;;;10.00;99.90;;;;;;5041917;28;20209;-86
2023/12/27 18:14:03;;;;;;;8.77;3.20;;;10.00;99.90;;;;;;5040546;28;20649;-80
2023/12/27 18:16:30;;;;;;;8.53;3.23;;;10.00;99.90;;;;;;5029880;28;20173;-80
2023/12/27 18:18:56;;;;;;;11.97;3.67;;;9.90;99.90;;;;;;5039007;28;20182;-83
2023/12/27 18:21:23;;;;;;;6.70;3.17;;;9.90;99.90;;;;;;5042899;28;20300;-83
2023/12/27 18:23:48;;;;;;;7.23;3.33;;;10.00;99.90;;;;;;5054863;28;20379;-92
2023/12/27 18:26:14;;;;;;;9.23;3.57;;;10.00;99.90;;;;;;5045983;28;20703;-83
2023/12/27 18:28:40;;;;;;;6.20;3.47;;;9.90;99.90;;;;;;5047739;28;20169;-79
2023/12/27 18:31:06;;;;;;;9.60;3.30;;;10.00;99.90;;;;;;5037458;28;20185;-86
2023/12/27 18:33:31;;;;;;;11.33;3.67;;;9.90;99.90;;;;;;5038629;28;20214;-83
2023/12/27 18:35:58;;;;;;;10.13;3.43;;;9.90;99.90;;;;;;5040696;28;20682;-78
2023/12/27 18:38:24;;;;;;;6.87;2.97;;;9.90;99.90;;;;;;5043962;28;20178;-79
2023/12/27 18:40:50;;;;;;;9.77;3.47;;;9.90;99.90;;;;;;5032653;28;20174;-80
2023/12/27 18:43:16;;;;;;;8.57;3.83;;;10.10;99.90;;;;;;5047324;28;20226;-78
2023/12/27 18:45:41;;;;;;;8.30;3.67;;;10.10;99.90;;;;;;5044242;28;20586;-76
2023/12/27 18:48:10;;;;;;;6.77;3.30;;;10.10;99.90;;;;;;5046291;28;20177;-83
2023/12/27 18:50:36;;;;;;;10.37;4.33;;;10.20;99.90;;;;;;5038484;28;20182;-82
2023/12/27 18:53:02;;;;;;;13.03;5.00;;;10.30;99.90;;;;;;5048472;28;20235;-81
2023/12/27 18:55:27;;;;;;;9.47;4.70;;;10.40;99.90;;;;;;5042886;28;20178;-80
2023/12/27 18:57:53;;;;;;;13.00;4.13;;;10.40;99.90;;;;;;5032785;28;20201;-81
2023/12/27 19:00:19;;;;;;;12.77;5.00;;;10.40;99.90;;;;;;5029043;28;20180;-80
2023/12/27 19:02:45;;;;;;;7.83;3.60;;;10.40;99.90;;;;;;5028612;28;20205;-81
2023/12/27 19:05:10;;;;;;;5.00;3.20;;;10.30;99.90;;;;;;5031317;28;20205;-82
2023/12/27 19:07:36;;;;;;;7.57;3.87;;;10.30;99.90;;;;;;5049608;28;20197;-81
2023/12/27 19:10:03;;;;;;;12.17;3.70;;;10.30;99.90;;;;;;5047368;28;20181;-81
2023/12/27 19:12:30;;;;;;;10.30;4.70;;;10.30;99.90;;;;;;5048227;28;20239;-81
2023/12/27 19:14:56;;;;;;;14.70;4.57;;;10.20;99.90;;;;;;5048091;28;20187;-79
2023/12/27 19:17:22;;;;;;;9.37;3.37;;;10.20;99.90;;;;;;5029061;28;20182;-80
2023/12/27 19:19:48;;;;;;;9.23;3.80;;;10.20;99.90;;;;;;5029821;28;20197;-80
2023/12/27 19:22:14;;;;;;;11.33;4.27;;;10.20;99.90;;;;;;5029892;28;20208;-80
2023/12/27 19:24:40;;;;;;;15.03;5.30;;;10.20;99.90;;;;;;5030434;28;20974;-80
2023/12/27 19:27:05;;;;;;;19.97;8.60;;;10.20;99.90;;;;;;5030782;28;20568;-80
2023/12/27 19:29:31;;;;;;;16.40;4.70;;;10.20;99.90;;;;;;5047631;28;20203;-81
2023/12/27 19:31:57;;;;;;;15.40;5.50;;;10.20;99.90;;;;;;5047416;28;20656;-81
2023/12/27 19:34:23;;;;;;;9.57;3.50;;;10.20;99.90;;;;;;5050810;28;20684;-81
2023/12/27 19:36:49;;;;;;;11.73;3.80;;;10.20;99.90;;;;;;5049227;28;20227;-80
2023/12/27 19:39:16;;;;;;;11.43;3.80;;;10.20;99.90;;;;;;5050263;28;20192;-81
2023/12/27 19:41:45;;;;;;;14.77;4.13;;;10.20;99.90;;;;;;5054010;28;20581;-81
2023/12/27 19:44:12;;;;;;;16.33;3.90;;;10.10;99.90;;;;;;5053723;28;20185;-81
2023/12/27 19:46:38;;;;;;;13.77;4.00;;;10.10;99.90;;;;;;5053054;28;20271;-80
2023/12/27 19:49:04;;;;;;;14.00;3.80;;;10.10;99.90;;;;;;5052769;28;20181;-80
2023/12/27 19:51:30;;;;;;;19.00;4.23;;;10.10;99.90;;;;;;5053917;28;20177;-78
2023/12/27 19:53:56;;;;;;;11.23;3.73;;;10.00;99.90;;;;;;5054536;28;20174;-81
2023/12/27 19:56:21;;;;;;;10.27;4.03;;;10.00;99.90;;;;;;5053920;28;20200;-78
2023/12/27 19:58:47;;;;;;;12.63;3.97;;;9.90;99.90;;;;;;5053907;28;20208;-79
2023/12/27 20:01:13;;;;;;;13.50;3.97;;;9.90;99.90;;;;;;5036271;28;20670;-78
2023/12/27 20:03:39;;;;;;;14.33;4.30;;;9.90;99.90;;;;;;5042565;28;20714;-79
2023/12/27 20:06:07;;;;;;;9.53;3.73;;;10.00;99.90;;;;;;5051285;28;20202;-78
2023/12/27 20:08:33;;;;;;;17.93;4.37;;;10.00;99.90;;;;;;5053900;28;20177;-81
2023/12/27 20:11:00;;;;;;;10.40;4.07;;;10.00;99.90;;;;;;5053708;28;20671;-78
2023/12/27 20:13:26;;;;;;;16.33;4.47;;;10.00;99.90;;;;;;5053511;28;20212;-79
2023/12/27 20:15:51;;;;;;;12.60;4.40;;;10.10;99.90;;;;;;5046850;28;20193;-78
2023/12/27 20:18:18;;;;;;;8.20;3.77;;;10.10;99.90;;;;;;5033713;28;20166;-80
2023/12/27 20:20:43;;;;;;;10.93;4.13;;;10.10;99.90;;;;;;5033687;28;20185;-79
2023/12/27 20:23:10;;;;;;;13.80;4.43;;;10.20;99.90;;;;;;5036428;28;20178;-79
2023/12/27 20:25:36;;;;;;;11.30;3.83;;;10.30;99.90;;;;;;5081752;28;20196;-79
2023/12/27 20:28:02;;;;;;;16.13;3.93;;;10.30;99.90;;;;;;5048494;28;20181;-80
2023/12/27 20:30:28;;;;;;;17.87;4.33;;;10.40;99.90;;;;;;5033631;28;20178;-78
2023/12/27 20:32:54;;;;;;;11.50;4.10;;;10.50;99.90;;;;;;5031991;28;20291;-78
2023/12/27 20:35:20;;;;;;;13.03;3.90;;;10.60;99.90;;;;;;5033394;28;20166;-79
2023/12/27 20:37:46;;;;;;;28.60;4.80;;;10.70;99.90;;;;;;5033457;28;20174;-80
2023/12/27 20:40:12;;;;;;;11.40;3.70;;;10.70;99.90;;;;;;5040071;28;20725;-78
2023/12/27 20:42:37;;;;;;;13.37;3.60;;;10.70;99.90;;;;;;5053197;28;20548;-78
2023/12/27 20:45:04;;;;;;;8.57;3.57;;;10.80;99.90;;;;;;5053099;28;20196;-79
2023/12/27 20:47:31;;;;;;;18.57;4.67;;;10.80;99.90;;;;;;5053176;28;20292;-79
2023/12/27 20:49:56;;;;;;;13.50;3.77;;;10.90;99.90;;;;;;5048541;28;20243;-80
2023/12/27 20:52:22;;;;;;;10.93;3.30;;;10.90;99.90;;;;;;5040733;28;20234;-79
2023/12/27 20:54:48;;;;;;;8.77;2.93;;;10.90;99.90;;;;;;5049432;28;20184;-80
2023/12/27 20:57:13;;;;;;;7.37;2.50;;;10.90;99.90;;;;;;5049850;28;20182;-80
2023/12/27 20:59:40;;;;;;;10.60;3.13;;;10.90;99.90;;;;;;5045382;28;20261;-81
2023/12/27 21:02:07;;;;;;;11.63;2.67;;;10.90;99.90;;;;;;5042808;28;20236;-85
2023/12/27 21:04:32;;;;;;;13.43;3.20;;;10.80;99.90;;;;;;5047772;28;20177;-81
2023/12/27 21:06:59;;;;;;;6.40;2.63;;;10.70;99.90;;;;;;5052567;28;20173;-84
2023/12/27 21:09:25;;;;;;;11.00;3.70;;;10.80;99.90;;;;;;5049568;28;20169;-82
2023/12/27 21:11:50;;;;;;;13.83;3.60;;;10.30;99.90;;;;;;5047987;28;20274;-82
2023/12/27 21:14:16;;;;;;;13.27;3.53;;;10.20;99.90;;;;;;5048481;28;20691;-84
2023/12/27 21:16:44;;;;;;;10.37;3.57;;;10.20;99.90;;;;;;5047956;28;20177;-82
2023/12/27 21:19:10;;;;;;;11.10;3.67;;;10.10;99.90;;;;;;5043977;28;20178;-83
2023/12/27 21:21:41;;;;;;;8.83;3.53;;;10.20;99.90;;;;;;5049499;28;20181;-81
2023/12/27 21:24:07;;;;;;;8.03;3.17;;;10.20;99.90;;;;;;5047409;28;20234;-85
2023/12/27 21:26:32;;;;;;;11.50;3.50;;;10.30;99.90;;;;;;5047550;28;20525;-82
2023/12/27 21:28:58;;;;;;;14.60;4.33;;;10.30;99.90;;;;;;5051007;28;20181;-83
2023/12/27 21:31:24;;;;;;;8.03;3.53;;;10.30;99.90;;;;;;5047819;28;20178;-82
2023/12/27 21:33:53;;;;;;;6.60;3.33;;;10.30;99.90;;;;;;5048550;28;20664;-85
2023/12/27 21:36:22;;;;;;;11.60;4.00;;;10.30;99.90;;;;;;5039657;28;20315;-82
2023/12/27 21:38:52;;;;;;;9.83;3.33;;;10.30;99.90;;;;;;5043500;28;20204;-89
2023/12/27 21:41:27;;;;;;;12.93;4.07;;;10.30;99.90;;;;;;5040730;28;20604;-78
2023/12/27 21:43:57;;;;;;;11.80;4.17;;;10.40;99.90;;;;;;5038981;28;20259;-80
2023/12/27 21:46:25;;;;;;;15.23;4.37;;;10.30;99.90;;;;;;5033265;28;20189;-80
2023/12/27 21:48:51;;;;;;;6.93;2.97;;;10.30;99.90;;;;;;5033529;28;20201;-79
2023/12/27 21:51:22;;;;;;;9.53;4.07;;;10.30;99.90;;;;;;5038591;28;20181;-80
2023/12/27 21:53:48;;;;;;;8.10;3.30;;;10.30;99.90;;;;;;5043816;28;20208;-79
2023/12/27 21:56:23;;;;;;;15.43;4.23;;;10.20;99.90;;;;;;5046713;28;20355;-80
2023/12/27 21:58:52;;;;;;;10.27;3.87;;;10.30;99.90;;;;;;5044092;28;20181;-81
2023/12/27 22:01:18;;;;;;;9.40;3.80;;;10.40;99.90;;;;;;5045492;28;20181;-77
2023/12/27 22:03:47;;;;;;;16.30;4.70;;;10.40;99.90;;;;;;5046141;28;20177;-79
2023/12/27 22:06:13;;;;;;;11.50;4.17;;;10.40;99.90;;;;;;5040689;28;20177;-78
2023/12/27 22:08:39;;;;;;;9.60;3.70;;;10.40;99.90;;;;;;5038327;28;20174;-80
2023/12/27 22:11:07;;;;;;;10.43;4.00;;;10.50;99.90;;;;;;5042998;28;20177;-77
2023/12/27 22:13:33;;;;;;;12.53;4.40;;;10.50;99.90;;;;;;5050807;28;20215;-79
2023/12/27 22:15:59;;;;;;;12.03;4.90;;;10.60;99.90;;;;;;5047686;28;20197;-77
2023/12/27 22:18:26;;;;;;;17.33;5.63;;;10.60;99.90;;;;;;5039671;28;20236;-77
2023/12/27 22:20:52;;;;;;;8.37;4.13;;;10.70;99.90;;;;;;5047111;28;20235;-78
2023/12/27 22:23:18;;;;;;;14.40;4.37;;;10.70;99.90;;;;;;5051082;28;20644;-77
2023/12/27 22:25:43;;;;;;;14.07;4.63;;;10.90;99.90;;;;;;5039163;28;20173;-78
2023/12/27 22:28:09;;;;;;;17.13;4.83;;;10.90;99.90;;;;;;5047223;28;20529;-77
2023/12/27 22:30:36;;;;;;;13.53;4.40;;;10.90;99.90;;;;;;5051586;28;20240;-78
2023/12/27 22:33:02;;;;;;;5.03;3.70;;;10.90;99.90;;;;;;5050439;28;20232;-79
2023/12/27 22:35:28;;;;;;;13.37;4.53;;;11.00;99.90;;;;;;5041132;28;20178;-81
2023/12/27 22:37:54;;;;;;;6.77;3.90;;;11.10;99.90;;;;;;5045808;28;20192;-82
2023/12/27 22:40:19;;;;;;;21.37;6.57;;;11.20;99.90;;;;;;5038534;28;20535;-83
2023/12/27 22:42:45;;;;;;;17.10;4.87;;;11.20;99.90;;;;;;5051157;28;20182;-82
2023/12/27 22:45:11;;;;;;;21.47;6.40;;;11.10;99.90;;;;;;5054654;28;20180;-87
